sensor_id;sensor_type;location;lat;lon;timestamp;P1;durP1;ratioP1;P2;durP2;ratioP2
8542;SDS011;4309;42.658;23.380;2023-02-08T00:00:05;20.77;;;11.00;;
8542;SDS011;4309;42.658;23.380;2023-02-08T00:00:37;22.63;;;12.25;;
8542;SDS011;4309;42.658;23.380;2023-02-08T00:01:10;21.42;;;10.55;;
8542;SDS011;4309;42.658;23.380;2023-02-08T00:01:43;20.95;;;12.05;;
8542;SDS011;4309;42.658;23.380;2023-02-08T00:02:18;19.27;;;9.75;;
8542;SDS011;4309;42.658;23.380;2023-02-08T00:02:51;20.67;;;11.50;;
8542;SDS011;4309;42.658;23.380;2023-02-08T00:03:22;22.38;;;12.02;;
8542;SDS011;4309;42.658;23.380;2023-02-08T00:03:55;20.55;;;10.27;;
8542;SDS011;4309;42.658;23.380;2023-02-08T00:04:28;21.95;;;10.98;;
8542;SDS011;4309;42.658;23.380;2023-02-08T00:05:00;22.05;;;11.00;;
8542;SDS011;4309;42.658;23.380;2023-02-08T00:05:32;21.65;;;10.52;;
8542;SDS011;4309;42.658;23.380;2023-02-08T00:06:08;22.23;;;11.77;;
8542;SDS011;4309;42.658;23.380;2023-02-08T00:06:41;24.35;;;11.25;;
8542;SDS011;4309;42.658;23.380;2023-02-08T00:07:13;20.58;;;10.75;;
8542;SDS011;4309;42.658;23.380;2023-02-08T00:07:46;20.55;;;10.95;;
8542;SDS011;4309;42.658;23.380;2023-02-08T00:08:17;22.85;;;11.68;;
8542;SDS011;4309;42.658;23.380;2023-02-08T00:08:49;21.55;;;12.00;;
8542;SDS011;4309;42.658;23.380;2023-02-08T00:09:23;20.75;;;11.48;;
8542;SDS011;4309;42.658;23.380;2023-02-08T00:09:56;20.40;;;10.85;;
8542;SDS011;4309;42.658;23.380;2023-02-08T00:10:28;20.75;;;8.27;;
8542;SDS011;4309;42.658;23.380;2023-02-08T00:11:02;18.33;;;8.57;;
8542;SDS011;4309;42.658;23.380;2023-02-08T00:11:34;18.88;;;10.00;;
8542;SDS011;4309;42.658;23.380;2023-02-08T00:12:07;20.88;;;11.48;;
8542;SDS011;4309;42.658;23.380;2023-02-08T00:12:40;20.92;;;11.68;;
8542;SDS011;4309;42.658;23.380;2023-02-08T00:13:12;22.38;;;11.82;;
8542;SDS011;4309;42.658;23.380;2023-02-08T00:13:45;22.55;;;10.98;;
8542;SDS011;4309;42.658;23.380;2023-02-08T00:14:19;19.55;;;11.32;;
8542;SDS011;4309;42.658;23.380;2023-02-08T00:14:51;21.63;;;11.27;;
8542;SDS011;4309;42.658;23.380;2023-02-08T00:15:24;21.05;;;12.00;;
8542;SDS011;4309;42.658;23.380;2023-02-08T00:15:58;18.92;;;8.73;;
8542;SDS011;4309;42.658;23.380;2023-02-08T00:16:30;20.10;;;10.57;;
8542;SDS011;4309;42.658;23.380;2023-02-08T00:17:03;20.70;;;11.13;;
8542;SDS011;4309;42.658;23.380;2023-02-08T00:17:35;20.45;;;11.38;;
8542;SDS011;4309;42.658;23.380;2023-02-08T00:18:08;18.02;;;10.43;;
8542;SDS011;4309;42.658;23.380;2023-02-08T00:18:41;23.05;;;11.65;;
8542;SDS011;4309;42.658;23.380;2023-02-08T00:19:13;20.20;;;11.05;;
8542;SDS011;4309;42.658;23.380;2023-02-08T00:19:48;21.13;;;11.05;;
8542;SDS011;4309;42.658;23.380;2023-02-08T00:20:21;20.40;;;9.90;;
8542;SDS011;4309;42.658;23.380;2023-02-08T00:20:54;22.10;;;10.73;;
8542;SDS011;4309;42.658;23.380;2023-02-08T00:21:27;20.95;;;10.20;;
8542;SDS011;4309;42.658;23.380;2023-02-08T00:22:00;21.60;;;10.45;;
8542;SDS011;4309;42.658;23.380;2023-02-08T00:22:33;19.45;;;8.25;;
8542;SDS011;4309;42.658;23.380;2023-02-08T00:23:05;19.15;;;9.98;;
8542;SDS011;4309;42.658;23.380;2023-02-08T00:23:38;18.20;;;10.23;;
8542;SDS011;4309;42.658;23.380;2023-02-08T00:24:11;24.70;;;10.88;;
8542;SDS011;4309;42.658;23.380;2023-02-08T00:24:43;18.70;;;9.93;;
8542;SDS011;4309;42.658;23.380;2023-02-08T00:25:17;21.33;;;11.25;;
8542;SDS011;4309;42.658;23.380;2023-02-08T00:25:49;20.48;;;10.57;;
8542;SDS011;4309;42.658;23.380;2023-02-08T00:26:21;21.70;;;10.68;;
8542;SDS011;4309;42.658;23.380;2023-02-08T00:26:55;18.58;;;9.50;;
8542;SDS011;4309;42.658;23.380;2023-02-08T00:27:26;22.38;;;11.00;;
8542;SDS011;4309;42.658;23.380;2023-02-08T00:27:58;20.48;;;11.23;;
8542;SDS011;4309;42.658;23.380;2023-02-08T00:28:31;20.77;;;11.15;;
8542;SDS011;4309;42.658;23.380;2023-02-08T00:29:04;16.83;;;8.32;;
8542;SDS011;4309;42.658;23.380;2023-02-08T00:29:36;21.27;;;11.50;;
8542;SDS011;4309;42.658;23.380;2023-02-08T00:30:09;19.52;;;9.82;;
8542;SDS011;4309;42.658;23.380;2023-02-08T00:30:42;21.05;;;11.35;;
8542;SDS011;4309;42.658;23.380;2023-02-08T00:31:13;20.05;;;10.55;;
8542;SDS011;4309;42.658;23.380;2023-02-08T00:31:47;19.40;;;10.85;;
8542;SDS011;4309;42.658;23.380;2023-02-08T00:32:20;19.73;;;10.43;;
8542;SDS011;4309;42.658;23.380;2023-02-08T00:32:50;20.17;;;10.90;;
8542;SDS011;4309;42.658;23.380;2023-02-08T00:33:26;23.17;;;11.07;;
8542;SDS011;4309;42.658;23.380;2023-02-08T00:34:01;21.48;;;10.73;;
8542;SDS011;4309;42.658;23.380;2023-02-08T00:34:31;22.35;;;11.15;;
8542;SDS011;4309;42.658;23.380;2023-02-08T00:35:06;19.17;;;10.63;;
8542;SDS011;4309;42.658;23.380;2023-02-08T00:35:37;19.83;;;10.65;;
8542;SDS011;4309;42.658;23.380;2023-02-08T00:36:08;23.08;;;11.88;;
8542;SDS011;4309;42.658;23.380;2023-02-08T00:36:43;21.30;;;11.02;;
8542;SDS011;4309;42.658;23.380;2023-02-08T00:37:15;17.85;;;10.30;;
8542;SDS011;4309;42.658;23.380;2023-02-08T00:37:48;20.80;;;11.45;;
8542;SDS011;4309;42.658;23.380;2023-02-08T00:38:21;21.63;;;11.80;;
8542;SDS011;4309;42.658;23.380;2023-02-08T00:38:53;26.40;;;12.18;;
8542;SDS011;4309;42.658;23.380;2023-02-08T00:39:25;22.13;;;11.55;;
8542;SDS011;4309;42.658;23.380;2023-02-08T00:39:58;20.02;;;10.82;;
8542;SDS011;4309;42.658;23.380;2023-02-08T00:40:38;22.75;;;11.35;;
8542;SDS011;4309;42.658;23.380;2023-02-08T00:41:14;21.55;;;12.10;;
8542;SDS011;4309;42.658;23.380;2023-02-08T00:41:46;19.42;;;11.38;;
8542;SDS011;4309;42.658;23.380;2023-02-08T00:42:18;19.83;;;11.65;;
8542;SDS011;4309;42.658;23.380;2023-02-08T00:42:51;20.77;;;11.05;;
8542;SDS011;4309;42.658;23.380;2023-02-08T00:43:23;20.70;;;11.23;;
8542;SDS011;4309;42.658;23.380;2023-02-08T00:43:54;20.48;;;11.20;;
8542;SDS011;4309;42.658;23.380;2023-02-08T00:44:27;22.30;;;12.00;;
8542;SDS011;4309;42.658;23.380;2023-02-08T00:45:00;20.75;;;11.10;;
8542;SDS011;4309;42.658;23.380;2023-02-08T00:45:31;20.25;;;10.23;;
8542;SDS011;4309;42.658;23.380;2023-02-08T00:46:07;21.58;;;11.13;;
8542;SDS011;4309;42.658;23.380;2023-02-08T00:46:40;19.20;;;10.52;;
8542;SDS011;4309;42.658;23.380;2023-02-08T00:47:13;23.48;;;11.63;;
8542;SDS011;4309;42.658;23.380;2023-02-08T00:47:46;18.67;;;11.13;;
8542;SDS011;4309;42.658;23.380;2023-02-08T00:48:18;18.63;;;10.05;;
8542;SDS011;4309;42.658;23.380;2023-02-08T00:48:50;21.33;;;10.93;;
8542;SDS011;4309;42.658;23.380;2023-02-08T00:49:23;18.85;;;10.27;;
8542;SDS011;4309;42.658;23.380;2023-02-08T00:49:55;21.63;;;11.02;;
8542;SDS011;4309;42.658;23.380;2023-02-08T00:50:27;21.83;;;11.32;;
8542;SDS011;4309;42.658;23.380;2023-02-08T00:50:59;19.75;;;10.63;;
8542;SDS011;4309;42.658;23.380;2023-02-08T00:51:33;24.60;;;11.55;;
8542;SDS011;4309;42.658;23.380;2023-02-08T00:52:05;18.83;;;11.05;;
8542;SDS011;4309;42.658;23.380;2023-02-08T00:52:37;18.17;;;10.25;;
8542;SDS011;4309;42.658;23.380;2023-02-08T00:53:10;23.17;;;11.80;;
8542;SDS011;4309;42.658;23.380;2023-02-08T00:53:44;18.83;;;9.65;;
8542;SDS011;4309;42.658;23.380;2023-02-08T00:54:18;25.08;;;11.52;;
8542;SDS011;4309;42.658;23.380;2023-02-08T00:54:51;19.33;;;10.57;;
8542;SDS011;4309;42.658;23.380;2023-02-08T00:55:23;22.55;;;12.25;;
8542;SDS011;4309;42.658;23.380;2023-02-08T00:55:57;24.70;;;11.75;;
8542;SDS011;4309;42.658;23.380;2023-02-08T00:56:30;22.38;;;11.10;;
8542;SDS011;4309;42.658;23.380;2023-02-08T00:57:02;24.60;;;11.75;;
8542;SDS011;4309;42.658;23.380;2023-02-08T00:57:35;18.27;;;10.50;;
8542;SDS011;4309;42.658;23.380;2023-02-08T00:58:07;19.70;;;11.07;;
8542;SDS011;4309;42.658;23.380;2023-02-08T00:58:39;20.50;;;10.88;;
8542;SDS011;4309;42.658;23.380;2023-02-08T00:59:13;20.63;;;11.10;;
8542;SDS011;4309;42.658;23.380;2023-02-08T00:59:45;23.13;;;12.18;;
8542;SDS011;4309;42.658;23.380;2023-02-08T01:00:17;17.05;;;9.68;;
8542;SDS011;4309;42.658;23.380;2023-02-08T01:00:51;24.58;;;12.32;;
8542;SDS011;4309;42.658;23.380;2023-02-08T01:01:23;21.10;;;11.20;;
8542;SDS011;4309;42.658;23.380;2023-02-08T01:01:55;19.48;;;11.55;;
8542;SDS011;4309;42.658;23.380;2023-02-08T01:02:28;23.08;;;12.65;;
8542;SDS011;4309;42.658;23.380;2023-02-08T01:03:00;22.75;;;12.23;;
8542;SDS011;4309;42.658;23.380;2023-02-08T01:03:33;22.45;;;12.32;;
8542;SDS011;4309;42.658;23.380;2023-02-08T01:04:10;23.73;;;12.60;;
8542;SDS011;4309;42.658;23.380;2023-02-08T01:04:42;21.02;;;11.25;;
8542;SDS011;4309;42.658;23.380;2023-02-08T01:05:13;20.20;;;11.18;;
8542;SDS011;4309;42.658;23.380;2023-02-08T01:05:46;17.58;;;9.45;;
8542;SDS011;4309;42.658;23.380;2023-02-08T01:06:17;18.23;;;10.20;;
8542;SDS011;4309;42.658;23.380;2023-02-08T01:06:48;22.63;;;12.05;;
8542;SDS011;4309;42.658;23.380;2023-02-08T01:07:21;22.20;;;11.57;;
8542;SDS011;4309;42.658;23.380;2023-02-08T01:07:53;20.10;;;9.93;;
8542;SDS011;4309;42.658;23.380;2023-02-08T01:08:25;19.45;;;10.77;;
8542;SDS011;4309;42.658;23.380;2023-02-08T01:08:57;20.73;;;11.50;;
8542;SDS011;4309;42.658;23.380;2023-02-08T01:09:30;20.38;;;11.38;;
8542;SDS011;4309;42.658;23.380;2023-02-08T01:10:03;20.88;;;11.73;;
8542;SDS011;4309;42.658;23.380;2023-02-08T01:10:35;19.45;;;10.45;;
8542;SDS011;4309;42.658;23.380;2023-02-08T01:11:10;21.70;;;11.75;;
8542;SDS011;4309;42.658;23.380;2023-02-08T01:11:43;22.90;;;11.85;;
8542;SDS011;4309;42.658;23.380;2023-02-08T01:12:16;22.20;;;11.73;;
8542;SDS011;4309;42.658;23.380;2023-02-08T01:12:49;23.20;;;11.70;;
8542;SDS011;4309;42.658;23.380;2023-02-08T01:13:21;22.90;;;12.25;;
8542;SDS011;4309;42.658;23.380;2023-02-08T01:13:53;22.50;;;11.95;;
8542;SDS011;4309;42.658;23.380;2023-02-08T01:14:28;22.70;;;11.73;;
8542;SDS011;4309;42.658;23.380;2023-02-08T01:15:00;24.50;;;12.27;;
8542;SDS011;4309;42.658;23.380;2023-02-08T01:15:33;23.67;;;12.18;;
8542;SDS011;4309;42.658;23.380;2023-02-08T01:16:09;21.58;;;12.25;;
8542;SDS011;4309;42.658;23.380;2023-02-08T01:16:42;22.25;;;12.48;;
8542;SDS011;4309;42.658;23.380;2023-02-08T01:17:14;22.08;;;11.57;;
8542;SDS011;4309;42.658;23.380;2023-02-08T01:17:52;22.75;;;11.48;;
8542;SDS011;4309;42.658;23.380;2023-02-08T01:18:24;18.73;;;10.00;;
8542;SDS011;4309;42.658;23.380;2023-02-08T01:18:57;25.08;;;10.95;;
8542;SDS011;4309;42.658;23.380;2023-02-08T01:19:31;20.20;;;11.82;;
8542;SDS011;4309;42.658;23.380;2023-02-08T01:20:04;22.27;;;11.90;;
8542;SDS011;4309;42.658;23.380;2023-02-08T01:20:37;23.08;;;10.52;;
8542;SDS011;4309;42.658;23.380;2023-02-08T01:21:09;23.13;;;12.38;;
8542;SDS011;4309;42.658;23.380;2023-02-08T01:21:43;22.27;;;11.88;;
8542;SDS011;4309;42.658;23.380;2023-02-08T01:22:15;21.85;;;11.85;;
8542;SDS011;4309;42.658;23.380;2023-02-08T01:22:48;23.05;;;11.43;;
8542;SDS011;4309;42.658;23.380;2023-02-08T01:23:20;23.67;;;11.00;;
8542;SDS011;4309;42.658;23.380;2023-02-08T01:23:52;21.23;;;11.77;;
8542;SDS011;4309;42.658;23.380;2023-02-08T01:24:25;22.88;;;12.35;;
8542;SDS011;4309;42.658;23.380;2023-02-08T01:24:57;23.83;;;12.75;;
8542;SDS011;4309;42.658;23.380;2023-02-08T01:25:30;21.98;;;12.85;;
8542;SDS011;4309;42.658;23.380;2023-02-08T01:26:04;24.17;;;11.32;;
8542;SDS011;4309;42.658;23.380;2023-02-08T01:26:38;21.92;;;12.02;;
8542;SDS011;4309;42.658;23.380;2023-02-08T01:27:10;22.90;;;11.77;;
8542;SDS011;4309;42.658;23.380;2023-02-08T01:27:43;23.10;;;11.55;;
8542;SDS011;4309;42.658;23.380;2023-02-08T01:28:15;24.08;;;12.57;;
8542;SDS011;4309;42.658;23.380;2023-02-08T01:28:47;21.17;;;12.27;;
8542;SDS011;4309;42.658;23.380;2023-02-08T01:29:19;23.42;;;12.55;;
8542;SDS011;4309;42.658;23.380;2023-02-08T01:29:51;21.02;;;11.65;;
8542;SDS011;4309;42.658;23.380;2023-02-08T01:30:26;22.15;;;12.48;;
8542;SDS011;4309;42.658;23.380;2023-02-08T01:30:58;23.13;;;12.60;;
8542;SDS011;4309;42.658;23.380;2023-02-08T01:31:31;22.30;;;11.10;;
8542;SDS011;4309;42.658;23.380;2023-02-08T01:32:04;23.85;;;12.85;;
8542;SDS011;4309;42.658;23.380;2023-02-08T01:32:36;23.00;;;11.85;;
8542;SDS011;4309;42.658;23.380;2023-02-08T01:33:08;18.90;;;9.55;;
8542;SDS011;4309;42.658;23.380;2023-02-08T01:33:41;23.10;;;11.82;;
8542;SDS011;4309;42.658;23.380;2023-02-08T01:34:12;24.23;;;11.15;;
8542;SDS011;4309;42.658;23.380;2023-02-08T01:34:45;22.63;;;12.68;;
8542;SDS011;4309;42.658;23.380;2023-02-08T01:35:17;23.10;;;12.23;;
8542;SDS011;4309;42.658;23.380;2023-02-08T01:35:50;24.90;;;11.77;;
8542;SDS011;4309;42.658;23.380;2023-02-08T01:36:22;20.70;;;10.57;;
8542;SDS011;4309;42.658;23.380;2023-02-08T01:36:55;21.73;;;12.40;;
8542;SDS011;4309;42.658;23.380;2023-02-08T01:37:27;22.92;;;12.65;;
8542;SDS011;4309;42.658;23.380;2023-02-08T01:37:59;21.10;;;12.07;;
8542;SDS011;4309;42.658;23.380;2023-02-08T01:38:32;21.08;;;11.98;;
8542;SDS011;4309;42.658;23.380;2023-02-08T01:39:05;21.67;;;12.57;;
8542;SDS011;4309;42.658;23.380;2023-02-08T01:39:37;21.42;;;11.38;;
8542;SDS011;4309;42.658;23.380;2023-02-08T01:40:11;21.70;;;10.68;;
8542;SDS011;4309;42.658;23.380;2023-02-08T01:40:43;25.58;;;12.40;;
8542;SDS011;4309;42.658;23.380;2023-02-08T01:41:16;25.50;;;13.73;;
8542;SDS011;4309;42.658;23.380;2023-02-08T01:41:52;23.42;;;12.48;;
8542;SDS011;4309;42.658;23.380;2023-02-08T01:42:24;24.70;;;12.68;;
8542;SDS011;4309;42.658;23.380;2023-02-08T01:42:58;22.75;;;12.25;;
8542;SDS011;4309;42.658;23.380;2023-02-08T01:43:30;22.60;;;12.38;;
8542;SDS011;4309;42.658;23.380;2023-02-08T01:44:05;25.17;;;12.13;;
8542;SDS011;4309;42.658;23.380;2023-02-08T01:45:23;21.13;;;10.05;;
8542;SDS011;4309;42.658;23.380;2023-02-08T01:45:59;23.40;;;12.02;;
8542;SDS011;4309;42.658;23.380;2023-02-08T01:46:32;25.55;;;13.10;;
8542;SDS011;4309;42.658;23.380;2023-02-08T01:47:05;24.08;;;12.70;;
8542;SDS011;4309;42.658;23.380;2023-02-08T01:47:37;22.25;;;12.55;;
8542;SDS011;4309;42.658;23.380;2023-02-08T01:48:14;25.30;;;12.45;;
8542;SDS011;4309;42.658;23.380;2023-02-08T01:48:48;23.42;;;12.35;;
8542;SDS011;4309;42.658;23.380;2023-02-08T01:49:23;26.20;;;12.63;;
8542;SDS011;4309;42.658;23.380;2023-02-08T01:50:02;24.35;;;13.18;;
8542;SDS011;4309;42.658;23.380;2023-02-08T01:50:35;23.25;;;12.98;;
8542;SDS011;4309;42.658;23.380;2023-02-08T01:51:15;23.42;;;11.95;;
8542;SDS011;4309;42.658;23.380;2023-02-08T01:51:52;26.83;;;13.32;;
8542;SDS011;4309;42.658;23.380;2023-02-08T01:52:29;21.92;;;12.15;;
8542;SDS011;4309;42.658;23.380;2023-02-08T01:53:02;28.27;;;13.13;;
8542;SDS011;4309;42.658;23.380;2023-02-08T01:53:35;24.65;;;12.80;;
8542;SDS011;4309;42.658;23.380;2023-02-08T01:54:08;24.13;;;13.05;;
8542;SDS011;4309;42.658;23.380;2023-02-08T01:54:43;23.40;;;11.52;;
8542;SDS011;4309;42.658;23.380;2023-02-08T01:55:21;23.83;;;12.05;;
8542;SDS011;4309;42.658;23.380;2023-02-08T01:55:58;23.17;;;12.95;;
8542;SDS011;4309;42.658;23.380;2023-02-08T01:56:33;24.70;;;13.30;;
8542;SDS011;4309;42.658;23.380;2023-02-08T01:57:13;22.20;;;12.30;;
8542;SDS011;4309;42.658;23.380;2023-02-08T01:57:46;29.08;;;15.50;;
8542;SDS011;4309;42.658;23.380;2023-02-08T01:58:28;25.63;;;13.15;;
8542;SDS011;4309;42.658;23.380;2023-02-08T01:59:04;24.42;;;12.20;;
8542;SDS011;4309;42.658;23.380;2023-02-08T01:59:39;24.13;;;12.05;;
8542;SDS011;4309;42.658;23.380;2023-02-08T02:00:16;22.48;;;12.02;;
8542;SDS011;4309;42.658;23.380;2023-02-08T02:00:52;23.98;;;11.90;;
8542;SDS011;4309;42.658;23.380;2023-02-08T02:01:25;22.92;;;11.52;;
8542;SDS011;4309;42.658;23.380;2023-02-08T02:01:59;24.70;;;13.05;;
8542;SDS011;4309;42.658;23.380;2023-02-08T02:02:33;22.52;;;11.10;;
8542;SDS011;4309;42.658;23.380;2023-02-08T02:03:07;25.50;;;12.70;;
8542;SDS011;4309;42.658;23.380;2023-02-08T02:03:40;22.08;;;12.65;;
8542;SDS011;4309;42.658;23.380;2023-02-08T02:04:14;21.38;;;10.80;;
8542;SDS011;4309;42.658;23.380;2023-02-08T02:04:46;21.05;;;11.70;;
8542;SDS011;4309;42.658;23.380;2023-02-08T02:05:23;25.08;;;12.10;;
8542;SDS011;4309;42.658;23.380;2023-02-08T02:06:00;22.48;;;11.73;;
8542;SDS011;4309;42.658;23.380;2023-02-08T02:06:38;21.73;;;12.07;;
8542;SDS011;4309;42.658;23.380;2023-02-08T02:07:12;23.67;;;11.65;;
8542;SDS011;4309;42.658;23.380;2023-02-08T02:07:46;24.25;;;12.32;;
8542;SDS011;4309;42.658;23.380;2023-02-08T02:08:19;24.80;;;13.30;;
8542;SDS011;4309;42.658;23.380;2023-02-08T02:08:55;23.98;;;13.25;;
8542;SDS011;4309;42.658;23.380;2023-02-08T02:09:35;22.45;;;12.43;;
8542;SDS011;4309;42.658;23.380;2023-02-08T02:10:13;27.08;;;12.95;;
8542;SDS011;4309;42.658;23.380;2023-02-08T02:10:51;28.15;;;12.73;;
8542;SDS011;4309;42.658;23.380;2023-02-08T02:11:27;22.10;;;12.70;;
8542;SDS011;4309;42.658;23.380;2023-02-08T02:11:59;23.85;;;13.55;;
8542;SDS011;4309;42.658;23.380;2023-02-08T02:12:33;24.33;;;13.40;;
8542;SDS011;4309;42.658;23.380;2023-02-08T02:13:10;24.05;;;12.52;;
8542;SDS011;4309;42.658;23.380;2023-02-08T02:13:44;24.80;;;13.18;;
8542;SDS011;4309;42.658;23.380;2023-02-08T02:14:18;26.75;;;13.68;;
8542;SDS011;4309;42.658;23.380;2023-02-08T02:14:51;24.42;;;12.30;;
8542;SDS011;4309;42.658;23.380;2023-02-08T02:15:23;25.95;;;13.02;;
8542;SDS011;4309;42.658;23.380;2023-02-08T02:15:55;24.02;;;12.75;;
8542;SDS011;4309;42.658;23.380;2023-02-08T02:16:28;24.92;;;13.35;;
8542;SDS011;4309;42.658;23.380;2023-02-08T02:16:59;23.17;;;12.95;;
8542;SDS011;4309;42.658;23.380;2023-02-08T02:17:31;25.33;;;13.65;;
8542;SDS011;4309;42.658;23.380;2023-02-08T02:18:07;25.73;;;13.38;;
8542;SDS011;4309;42.658;23.380;2023-02-08T02:18:39;24.90;;;13.75;;
8542;SDS011;4309;42.658;23.380;2023-02-08T02:19:12;28.17;;;13.97;;
8542;SDS011;4309;42.658;23.380;2023-02-08T02:20:06;27.63;;;13.85;;
8542;SDS011;4309;42.658;23.380;2023-02-08T02:20:49;23.08;;;12.38;;
8542;SDS011;4309;42.658;23.380;2023-02-08T02:21:45;21.85;;;10.52;;
8542;SDS011;4309;42.658;23.380;2023-02-08T02:22:42;22.33;;;11.43;;
8542;SDS011;4309;42.658;23.380;2023-02-08T02:23:53;20.20;;;10.60;;
8542;SDS011;4309;42.658;23.380;2023-02-08T02:26:01;20.45;;;10.60;;
8542;SDS011;4309;42.658;23.380;2023-02-08T02:26:57;23.90;;;10.50;;
8542;SDS011;4309;42.658;23.380;2023-02-08T02:28:07;23.33;;;10.55;;
8542;SDS011;4309;42.658;23.380;2023-02-08T02:30:34;23.30;;;10.60;;
8542;SDS011;4309;42.658;23.380;2023-02-08T02:31:32;15.10;;;7.75;;
8542;SDS011;4309;42.658;23.380;2023-02-08T02:32:25;14.90;;;7.22;;
8542;SDS011;4309;42.658;23.380;2023-02-08T02:33:17;24.65;;;12.18;;
8542;SDS011;4309;42.658;23.380;2023-02-08T02:34:04;21.30;;;10.50;;
8542;SDS011;4309;42.658;23.380;2023-02-08T02:34:44;23.00;;;11.27;;
8542;SDS011;4309;42.658;23.380;2023-02-08T02:35:20;23.95;;;12.27;;
8542;SDS011;4309;42.658;23.380;2023-02-08T02:36:06;21.70;;;11.93;;
8542;SDS011;4309;42.658;23.380;2023-02-08T02:36:43;22.73;;;11.38;;
8542;SDS011;4309;42.658;23.380;2023-02-08T02:37:27;27.60;;;12.32;;
8542;SDS011;4309;42.658;23.380;2023-02-08T02:38:10;24.10;;;12.25;;
8542;SDS011;4309;42.658;23.380;2023-02-08T02:38:53;26.08;;;13.15;;
8542;SDS011;4309;42.658;23.380;2023-02-08T02:39:36;24.48;;;12.57;;
8542;SDS011;4309;42.658;23.380;2023-02-08T02:40:18;24.92;;;11.82;;
8542;SDS011;4309;42.658;23.380;2023-02-08T02:40:59;24.17;;;11.98;;
8542;SDS011;4309;42.658;23.380;2023-02-08T02:41:39;24.50;;;13.20;;
8542;SDS011;4309;42.658;23.380;2023-02-08T02:42:36;20.77;;;11.13;;
8542;SDS011;4309;42.658;23.380;2023-02-08T02:43:38;21.95;;;11.38;;
8542;SDS011;4309;42.658;23.380;2023-02-08T02:44:17;22.83;;;11.35;;
8542;SDS011;4309;42.658;23.380;2023-02-08T02:44:59;26.63;;;12.90;;
8542;SDS011;4309;42.658;23.380;2023-02-08T02:45:39;22.48;;;11.98;;
8542;SDS011;4309;42.658;23.380;2023-02-08T02:46:21;24.20;;;11.75;;
8542;SDS011;4309;42.658;23.380;2023-02-08T02:46:59;25.73;;;13.32;;
8542;SDS011;4309;42.658;23.380;2023-02-08T02:47:41;29.50;;;15.25;;
8542;SDS011;4309;42.658;23.380;2023-02-08T02:48:25;27.42;;;14.98;;
8542;SDS011;4309;42.658;23.380;2023-02-08T02:49:03;29.60;;;14.82;;
8542;SDS011;4309;42.658;23.380;2023-02-08T02:49:43;29.17;;;14.57;;
8542;SDS011;4309;42.658;23.380;2023-02-08T02:50:28;30.58;;;14.20;;
8542;SDS011;4309;42.658;23.380;2023-02-08T02:51:06;32.15;;;15.25;;
8542;SDS011;4309;42.658;23.380;2023-02-08T02:51:42;32.35;;;15.52;;
8542;SDS011;4309;42.658;23.380;2023-02-08T02:52:27;35.42;;;16.27;;
8542;SDS011;4309;42.658;23.380;2023-02-08T02:53:06;32.67;;;16.35;;
8542;SDS011;4309;42.658;23.380;2023-02-08T02:53:46;32.42;;;15.02;;
8542;SDS011;4309;42.658;23.380;2023-02-08T02:54:25;31.02;;;15.50;;
8542;SDS011;4309;42.658;23.380;2023-02-08T02:55:04;30.67;;;16.20;;
8542;SDS011;4309;42.658;23.380;2023-02-08T02:55:41;31.05;;;15.60;;
8542;SDS011;4309;42.658;23.380;2023-02-08T02:56:18;34.70;;;16.60;;
8542;SDS011;4309;42.658;23.380;2023-02-08T02:56:55;31.85;;;15.88;;
8542;SDS011;4309;42.658;23.380;2023-02-08T02:57:31;34.13;;;16.40;;
8542;SDS011;4309;42.658;23.380;2023-02-08T02:58:07;35.00;;;17.23;;
8542;SDS011;4309;42.658;23.380;2023-02-08T02:58:42;35.30;;;18.00;;
8542;SDS011;4309;42.658;23.380;2023-02-08T02:59:15;35.88;;;17.65;;
8542;SDS011;4309;42.658;23.380;2023-02-08T02:59:49;35.80;;;18.05;;
8542;SDS011;4309;42.658;23.380;2023-02-08T03:00:21;31.38;;;15.32;;
8542;SDS011;4309;42.658;23.380;2023-02-08T03:00:54;35.00;;;16.42;;
8542;SDS011;4309;42.658;23.380;2023-02-08T03:01:29;34.03;;;17.20;;
8542;SDS011;4309;42.658;23.380;2023-02-08T03:02:03;34.78;;;16.58;;
8542;SDS011;4309;42.658;23.380;2023-02-08T03:02:36;31.95;;;16.83;;
8542;SDS011;4309;42.658;23.380;2023-02-08T03:03:11;35.88;;;17.58;;
8542;SDS011;4309;42.658;23.380;2023-02-08T03:03:52;33.88;;;16.42;;
8542;SDS011;4309;42.658;23.380;2023-02-08T03:04:50;36.08;;;17.13;;
8542;SDS011;4309;42.658;23.380;2023-02-08T03:05:24;33.15;;;15.98;;
8542;SDS011;4309;42.658;23.380;2023-02-08T03:05:58;36.35;;;16.05;;
8542;SDS011;4309;42.658;23.380;2023-02-08T03:06:35;34.10;;;14.80;;
8542;SDS011;4309;42.658;23.380;2023-02-08T03:07:24;32.05;;;16.55;;
8542;SDS011;4309;42.658;23.380;2023-02-08T03:08:13;31.75;;;15.02;;
8542;SDS011;4309;42.658;23.380;2023-02-08T03:09:05;31.27;;;14.77;;
8542;SDS011;4309;42.658;23.380;2023-02-08T03:09:50;29.92;;;15.30;;
8542;SDS011;4309;42.658;23.380;2023-02-08T03:10:39;29.50;;;14.52;;
8542;SDS011;4309;42.658;23.380;2023-02-08T03:11:24;35.10;;;15.38;;
8542;SDS011;4309;42.658;23.380;2023-02-08T03:12:01;34.22;;;15.60;;
8542;SDS011;4309;42.658;23.380;2023-02-08T03:12:47;34.80;;;14.82;;
8542;SDS011;4309;42.658;23.380;2023-02-08T03:13:27;33.30;;;15.13;;
8542;SDS011;4309;42.658;23.380;2023-02-08T03:14:16;33.25;;;16.40;;
8542;SDS011;4309;42.658;23.380;2023-02-08T03:15:01;38.13;;;16.48;;
8542;SDS011;4309;42.658;23.380;2023-02-08T03:15:44;33.58;;;15.90;;
8542;SDS011;4309;42.658;23.380;2023-02-08T03:16:30;32.63;;;15.38;;
8542;SDS011;4309;42.658;23.380;2023-02-08T03:17:13;33.38;;;16.00;;
8542;SDS011;4309;42.658;23.380;2023-02-08T03:17:55;31.13;;;15.63;;
8542;SDS011;4309;42.658;23.380;2023-02-08T03:18:40;33.92;;;16.20;;
8542;SDS011;4309;42.658;23.380;2023-02-08T03:19:24;34.88;;;15.80;;
8542;SDS011;4309;42.658;23.380;2023-02-08T03:20:04;38.85;;;17.25;;
8542;SDS011;4309;42.658;23.380;2023-02-08T03:20:41;35.80;;;17.45;;
8542;SDS011;4309;42.658;23.380;2023-02-08T03:21:23;36.35;;;17.45;;
8542;SDS011;4309;42.658;23.380;2023-02-08T03:22:10;32.50;;;16.27;;
8542;SDS011;4309;42.658;23.380;2023-02-08T03:22:46;35.47;;;17.13;;
8542;SDS011;4309;42.658;23.380;2023-02-08T03:23:27;29.48;;;14.52;;
8542;SDS011;4309;42.658;23.380;2023-02-08T03:24:04;31.20;;;15.70;;
8542;SDS011;4309;42.658;23.380;2023-02-08T03:24:47;34.90;;;16.52;;
8542;SDS011;4309;42.658;23.380;2023-02-08T03:25:26;33.40;;;15.55;;
8542;SDS011;4309;42.658;23.380;2023-02-08T03:26:06;36.22;;;16.38;;
8542;SDS011;4309;42.658;23.380;2023-02-08T03:26:46;34.13;;;16.85;;
8542;SDS011;4309;42.658;23.380;2023-02-08T03:27:26;31.35;;;15.50;;
8542;SDS011;4309;42.658;23.380;2023-02-08T03:28:07;30.52;;;14.52;;
8542;SDS011;4309;42.658;23.380;2023-02-08T03:28:47;32.17;;;16.05;;
8542;SDS011;4309;42.658;23.380;2023-02-08T03:29:34;38.53;;;17.65;;
8542;SDS011;4309;42.658;23.380;2023-02-08T03:30:14;33.95;;;16.42;;
8542;SDS011;4309;42.658;23.380;2023-02-08T03:30:50;35.80;;;17.05;;
8542;SDS011;4309;42.658;23.380;2023-02-08T03:31:35;34.63;;;16.55;;
8542;SDS011;4309;42.658;23.380;2023-02-08T03:32:15;34.22;;;16.92;;
8542;SDS011;4309;42.658;23.380;2023-02-08T03:32:51;40.63;;;17.75;;
8542;SDS011;4309;42.658;23.380;2023-02-08T03:33:31;35.03;;;16.92;;
8542;SDS011;4309;42.658;23.380;2023-02-08T03:34:09;31.80;;;16.38;;
8542;SDS011;4309;42.658;23.380;2023-02-08T03:34:48;36.45;;;17.45;;
8542;SDS011;4309;42.658;23.380;2023-02-08T03:35:26;33.50;;;16.40;;
8542;SDS011;4309;42.658;23.380;2023-02-08T03:36:05;35.17;;;16.40;;
8542;SDS011;4309;42.658;23.380;2023-02-08T03:36:43;32.17;;;16.38;;
8542;SDS011;4309;42.658;23.380;2023-02-08T03:37:20;33.35;;;15.57;;
8542;SDS011;4309;42.658;23.380;2023-02-08T03:37:57;36.10;;;15.68;;